In Rescue
 
Open Full Screen Window  High Contrast Mode
Wind Gusting 00 knots
07
May 13, 2021 10:38 AM EDT
Weather Information
Wind Direction
  180 °
Wind Speed
  07 kt (8 mph)
Wind Gust
  00 kt (0 mph)
Altimeter
30.36 in
Visibility
10 SM
Temperature
09° C
48° F
Dewpoint
03° C
37° F
Humidity
66%
1hr Rain Fall
00.00 in.
24hr Rain Fall
00.00 in.
Sky Condition
Clear
VFR

METAR KISQ 131438Z AUTO 18007KT 10SM CLR 09/03 A3036 RMK AO2 T00900029

FAA Disclaimer: The data displayed is for advisory purposes only and is not to be used for flight planning or operations.